Aérodrome :
LOGIN :

S'inscrire | Disclaimer

   EN    FR    IT 

 










Légende :    VFR   VFR Marginal   IFR   IFR Intensif   IFR Très Intensif
Visi : 
Plafond : 
>= 8 km
>= 3000ft
5 à 8 km
1000 à 3000 ft
1500m à 5 km
500 à 1000 ft
800 à 1500m
200 à 500 ft
< 800m
< 200 ft
Symboles :   Orages  Brouillard  Fortes neiges  Fortes précipitations  Vent > 20 kt
SIGMETs :   Divers  Orages  Givrage  Turbulence  Onde Orograph.  Cendres Volcan.






- Altitude de l'aérodrome : 699 ft
- Code IATA : PAD


EDLP - Paderborn Lippstadt

DERNIER METAR :
  • 131620Z 24012KT 210V290 CAVOK 19/08 Q1013

METARs EXPIRÉS :
  • 131550Z 25011KT 230V290 9999 SCT043 19/09 Q1013
  • 131520Z 26008KT 230V310 9999 SCT043 20/09 Q1013
  • 131450Z 25009KT 220V290 9999 FEW043 19/09 Q1013
  • 131420Z 25010KT 220V300 9999 SCT043 20/11 Q1013
  • 131350Z 25010KT 220V310 9999 BKN040 18/09 Q1013
  • 131320Z 26007KT 220V310 9999 BKN038 OVC044 18/09 Q1013
  • 131250Z 24013KT 9999 BKN036 18/09 Q1013
  • 131220Z 24011KT 220V280 9999 BKN036 17/09 Q1013
  • 131150Z 23013KT 9999 BKN034 BKN039 17/09 Q1012

TAF TAF EDLP
Valide du 13 à 12h jusqu'au 14 à 12h UTC


131100Z 1312/1412 24013KT 9999 BKN030
PROB30
TEMPO 1312/1316 24015G25KT
BECMG 1315/1318 25007KT
BECMG 1319/1322 18005KT
BECMG 1406/1409 24007KT



MET'MAP, la Météo Aéronautique d'un coup d'oeil ! - Copyright ORBIFLY Décembre 2007 - Disclaimer

ORBIFLY MET'MAP TEAM :

Programmation & Développement : Alexandra Zaïnal
Sur une idée originale de : Baudouin d'Aumeries
Soutien technique & logistique : Manuel Goepfert
Assistance : Marc-Olivier Méhu




SOURCES & CREDITS :

   NOAA